Huntley, Nebraska
Current Conditions -  °F | °C
As of 8:55 PM on Friday 21 Nov 2014 (Local Time) from KHDE Reporting Station
Broken Clouds Broken Clouds  
Wind Chill: 29°   Ceiling: 600
Heat Index: 34°   Visibility: 10mi
Dew Point: 27°   Wind: 6mph
Humidity: 77%   Direction: 180°S
Pressure: 29.96"   Gusts: NA
Location:  40.1316°N, 99.2306°W
Report Text: KHDE 220255Z AUTO 18005KT 10SM BKN006 BKN010 01/M03 A2996 RMK AO2 T00101027
Loading
Personal Weather Stations






























Interactive Weather Map New forecast layout! Learn more

10-Day Weather Forecast

Advertisements
Track Severe Weather on mobile